BAW557 EGCC-FALE
Flight info
| Callsign | BAW557 |
|---|---|
| Flight time | N/A |
| Altitude | 41000 |
| Route | LISTO UL612 RESMI UN857 DISAK DCT NARAK DCT PUMAL/N0481F370 N859 MOGIL UB31 ZEM/N0479F360 UB726 BSA/N0480F370 UJ36 TGU UM508 BOD UM998 NEBRA/N0481F390 UM998 MIPKU/N0480F410 UM998 VUE UB733 BUGRO UM998 IBRIT UT941 RUDAS/N0422F230 G853 UTRUK G655 HGV/N0488F350 UZ17 GEROX/N0421F230 Q28 GETOK GETOK1D |
| Aircraft | B772/H-SDE2E3FGHIJ5LORVWXY/LB1D1 |
Departure
| Time | N/A |
|---|---|
| Airport | Manchester Airport (EGCC) |
Arrival
| Time | 2026-05-05 06:02 |
|---|---|
| Airport | King Shaka International Airport (FALE) |
| Time | Latitude | Longitude | Altitude | Speed | Heading |
|---|---|---|---|---|---|
| 2026-05-05 04:35 | -20.55840 | 23.81326 | 41005 ft | 555 kts | 147° |
| 2026-05-05 04:36 | -20.62165 | 23.86070 | 41005 ft | 557 kts | 147° |
| 2026-05-05 04:36 | -20.68503 | 23.90831 | 41004 ft | 558 kts | 147° |
| 2026-05-05 04:37 | -20.74847 | 23.95602 | 41000 ft | 558 kts | 147° |
| 2026-05-05 04:37 | -20.81201 | 24.00385 | 41005 ft | 559 kts | 147° |
| 2026-05-05 04:38 | -20.87553 | 24.05173 | 41003 ft | 559 kts | 147° |
| 2026-05-05 04:38 | -20.93908 | 24.09968 | 41001 ft | 559 kts | 147° |
| 2026-05-05 04:39 | -21.00285 | 24.14783 | 41001 ft | 559 kts | 147° |
| 2026-05-05 04:39 | -21.06623 | 24.19576 | 41000 ft | 559 kts | 147° |
| 2026-05-05 04:40 | -21.13005 | 24.24406 | 40999 ft | 559 kts | 147° |
| 2026-05-05 04:40 | -21.19358 | 24.29219 | 41006 ft | 560 kts | 147° |
| 2026-05-05 04:41 | -21.25679 | 24.34013 | 40987 ft | 560 kts | 147° |
| 2026-05-05 04:41 | -21.32034 | 24.38839 | 41003 ft | 560 kts | 147° |
| 2026-05-05 04:42 | -21.38382 | 24.43664 | 41005 ft | 560 kts | 147° |
| 2026-05-05 04:42 | -21.44728 | 24.48493 | 40992 ft | 560 kts | 147° |
| 2026-05-05 04:43 | -21.51121 | 24.53363 | 40997 ft | 561 kts | 147° |
| 2026-05-05 04:43 | -21.57475 | 24.58209 | 40994 ft | 561 kts | 147° |
| 2026-05-05 04:44 | -21.63832 | 24.63063 | 41000 ft | 561 kts | 147° |
| 2026-05-05 04:44 | -21.70174 | 24.67910 | 41004 ft | 562 kts | 147° |
| 2026-05-05 04:45 | -21.76585 | 24.72815 | 41005 ft | 562 kts | 147° |
| 2026-05-05 04:45 | -21.82941 | 24.77686 | 41004 ft | 563 kts | 147° |
| 2026-05-05 04:46 | -21.89313 | 24.82573 | 41010 ft | 564 kts | 147° |
| 2026-05-05 04:46 | -21.95704 | 24.87472 | 41008 ft | 564 kts | 147° |
| 2026-05-05 04:47 | -22.02112 | 24.92375 | 41009 ft | 565 kts | 147° |
| 2026-05-05 04:47 | -22.08527 | 24.97290 | 41007 ft | 565 kts | 147° |
| 2026-05-05 04:48 | -22.14916 | 25.02193 | 41008 ft | 566 kts | 147° |
| 2026-05-05 04:48 | -22.21356 | 25.07143 | 41009 ft | 566 kts | 147° |
| 2026-05-05 04:49 | -22.27753 | 25.12065 | 41013 ft | 567 kts | 147° |
| 2026-05-05 04:49 | -22.34160 | 25.17000 | 41011 ft | 567 kts | 147° |
| 2026-05-05 04:50 | -22.40574 | 25.21946 | 41017 ft | 567 kts | 147° |
| 2026-05-05 04:50 | -22.47036 | 25.26936 | 41009 ft | 568 kts | 147° |
| 2026-05-05 04:51 | -22.53453 | 25.31896 | 41011 ft | 568 kts | 147° |
| 2026-05-05 04:51 | -22.59876 | 25.36867 | 41016 ft | 568 kts | 147° |
| 2026-05-05 04:52 | -22.66306 | 25.41849 | 41018 ft | 569 kts | 147° |
| 2026-05-05 04:52 | -22.72725 | 25.46828 | 41018 ft | 569 kts | 147° |
| 2026-05-05 04:53 | -22.79166 | 25.51830 | 41020 ft | 570 kts | 147° |
| 2026-05-05 04:53 | -22.85603 | 25.56836 | 41024 ft | 570 kts | 147° |
| 2026-05-05 04:54 | -22.92051 | 25.61857 | 41024 ft | 571 kts | 147° |
| 2026-05-05 04:54 | -22.98475 | 25.66942 | 41024 ft | 572 kts | 146° |
| 2026-05-05 04:55 | -23.04796 | 25.72122 | 41022 ft | 572 kts | 145° |
| 2026-05-05 04:55 | -23.11144 | 25.77343 | 41023 ft | 572 kts | 145° |
| 2026-05-05 04:56 | -23.16459 | 25.81694 | 41021 ft | 573 kts | 145° |
| 2026-05-05 04:56 | -23.23878 | 25.87756 | 41024 ft | 573 kts | 145° |
| 2026-05-05 04:57 | -23.29226 | 25.92131 | 41023 ft | 573 kts | 145° |
| 2026-05-05 04:57 | -23.35572 | 25.97332 | 41022 ft | 574 kts | 145° |
| 2026-05-05 04:58 | -23.41946 | 26.02563 | 41027 ft | 574 kts | 145° |
| 2026-05-05 04:58 | -23.48302 | 26.07787 | 41029 ft | 574 kts | 145° |
| 2026-05-05 04:59 | -23.54706 | 26.13043 | 41029 ft | 574 kts | 146° |
| 2026-05-05 04:59 | -23.61365 | 26.17838 | 41020 ft | 572 kts | 151° |
| 2026-05-05 05:00 | -23.68125 | 26.22449 | 41034 ft | 573 kts | 150° |
| 2026-05-05 05:00 | -23.74750 | 26.27266 | 41023 ft | 576 kts | 147° |
| 2026-05-05 05:01 | -23.81191 | 26.32482 | 41036 ft | 577 kts | 146° |
| 2026-05-05 05:01 | -23.87640 | 26.37664 | 41034 ft | 577 kts | 146° |
| 2026-05-05 05:02 | -23.94108 | 26.42852 | 41038 ft | 577 kts | 146° |
| 2026-05-05 05:02 | -24.00590 | 26.48070 | 41043 ft | 578 kts | 146° |
| 2026-05-05 05:03 | -24.07092 | 26.53314 | 41048 ft | 578 kts | 146° |
| 2026-05-05 05:03 | -24.13535 | 26.58516 | 41053 ft | 579 kts | 146° |
| 2026-05-05 05:04 | -24.20016 | 26.63755 | 41057 ft | 579 kts | 146° |
| 2026-05-05 05:04 | -24.26511 | 26.69012 | 41060 ft | 579 kts | 146° |
| 2026-05-05 05:05 | -24.32988 | 26.74263 | 41065 ft | 579 kts | 146° |
| 2026-05-05 05:05 | -24.39452 | 26.79559 | 41076 ft | 580 kts | 146° |
| 2026-05-05 05:06 | -24.45900 | 26.84868 | 41070 ft | 580 kts | 146° |
| 2026-05-05 05:06 | -24.52339 | 26.90167 | 41069 ft | 580 kts | 146° |
| 2026-05-05 05:07 | -24.58814 | 26.95440 | 41074 ft | 580 kts | 147° |
| 2026-05-05 05:07 | -24.65358 | 27.00649 | 41078 ft | 580 kts | 147° |
| 2026-05-05 05:08 | -24.71914 | 27.05864 | 41081 ft | 580 kts | 147° |
| 2026-05-05 05:08 | -24.78443 | 27.11090 | 41083 ft | 581 kts | 147° |
| 2026-05-05 05:09 | -24.84970 | 27.16333 | 41082 ft | 581 kts | 147° |
| 2026-05-05 05:09 | -24.91507 | 27.21591 | 41088 ft | 581 kts | 146° |
| 2026-05-05 05:10 | -24.98032 | 27.26845 | 41094 ft | 582 kts | 146° |
| 2026-05-05 05:10 | -25.04557 | 27.32104 | 41099 ft | 582 kts | 146° |
| 2026-05-05 05:11 | -25.11092 | 27.37379 | 41099 ft | 582 kts | 146° |
| 2026-05-05 05:11 | -25.17632 | 27.42666 | 41107 ft | 583 kts | 146° |
| 2026-05-05 05:12 | -25.24165 | 27.47953 | 41111 ft | 583 kts | 146° |
| 2026-05-05 05:12 | -25.30713 | 27.53260 | 41115 ft | 583 kts | 146° |
| 2026-05-05 05:13 | -25.37228 | 27.58548 | 41136 ft | 583 kts | 146° |
| 2026-05-05 05:13 | -25.43809 | 27.63897 | 41138 ft | 584 kts | 146° |
| 2026-05-05 05:14 | -25.50358 | 27.69227 | 41136 ft | 584 kts | 146° |
| 2026-05-05 05:14 | -25.56859 | 27.74529 | 41134 ft | 584 kts | 146° |
| 2026-05-05 05:15 | -25.63434 | 27.79883 | 41154 ft | 583 kts | 148° |
| 2026-05-05 05:15 | -25.70317 | 27.84468 | 41163 ft | 578 kts | 158° |
| 2026-05-05 05:16 | -25.77720 | 27.87902 | 41164 ft | 573 kts | 165° |
| 2026-05-05 05:16 | -25.85156 | 27.91036 | 41166 ft | 574 kts | 165° |
| 2026-05-05 05:17 | -25.92377 | 27.94130 | 41163 ft | 575 kts | 164° |
| 2026-05-05 05:17 | -25.99871 | 27.97413 | 41157 ft | 576 kts | 164° |
| 2026-05-05 05:18 | -26.07302 | 28.00691 | 41157 ft | 577 kts | 164° |
| 2026-05-05 05:18 | -26.14734 | 28.03968 | 41163 ft | 577 kts | 164° |
| 2026-05-05 05:19 | -26.22217 | 28.07266 | 41160 ft | 578 kts | 164° |
| 2026-05-05 05:19 | -26.29704 | 28.10568 | 41158 ft | 578 kts | 164° |
| 2026-05-05 05:20 | -26.37173 | 28.13869 | 41151 ft | 578 kts | 164° |
| 2026-05-05 05:20 | -26.44620 | 28.17165 | 41146 ft | 578 kts | 164° |
| 2026-05-05 05:21 | -26.52113 | 28.20485 | 41141 ft | 578 kts | 164° |
| 2026-05-05 05:21 | -26.59577 | 28.23799 | 41136 ft | 579 kts | 164° |
| 2026-05-05 05:22 | -26.67028 | 28.27188 | 41134 ft | 581 kts | 160° |
| 2026-05-05 05:22 | -26.74137 | 28.31605 | 41113 ft | 589 kts | 149° |
| 2026-05-05 05:23 | -26.80798 | 28.36951 | 41125 ft | 590 kts | 147° |
| 2026-05-05 05:23 | -26.87409 | 28.42354 | 41116 ft | 590 kts | 147° |
| 2026-05-05 05:24 | -26.94071 | 28.47708 | 41118 ft | 589 kts | 148° |
| 2026-05-05 05:24 | -27.00775 | 28.53047 | 41117 ft | 589 kts | 148° |
| 2026-05-05 05:25 | -27.07446 | 28.58367 | 41116 ft | 589 kts | 148° |
| 2026-05-05 05:25 | -27.14100 | 28.63693 | 41113 ft | 589 kts | 148° |
| 2026-05-05 05:26 | -27.20802 | 28.69069 | 41115 ft | 589 kts | 148° |
| 2026-05-05 05:26 | -27.27433 | 28.74395 | 41116 ft | 589 kts | 148° |
| 2026-05-05 05:27 | -27.34089 | 28.79748 | 41116 ft | 589 kts | 148° |
| 2026-05-05 05:27 | -27.44471 | 28.87024 | 41114 ft | 583 kts | 157° |
| 2026-05-05 05:28 | -27.51683 | 28.91302 | 41112 ft | 583 kts | 157° |
| 2026-05-05 05:28 | -27.58822 | 28.95572 | 41112 ft | 584 kts | 156° |
| 2026-05-05 05:29 | -27.65998 | 28.99951 | 41105 ft | 584 kts | 156° |
| 2026-05-05 05:29 | -27.73138 | 29.04334 | 41104 ft | 584 kts | 156° |
| 2026-05-05 05:30 | -27.80234 | 29.08689 | 41092 ft | 584 kts | 156° |
| 2026-05-05 05:30 | -27.87412 | 29.13094 | 41088 ft | 584 kts | 156° |
| 2026-05-05 05:31 | -27.94569 | 29.17494 | 41083 ft | 584 kts | 156° |
| 2026-05-05 05:31 | -28.01684 | 29.21873 | 41075 ft | 584 kts | 156° |
| 2026-05-05 05:32 | -28.08823 | 29.26268 | 41081 ft | 584 kts | 156° |
| 2026-05-05 05:32 | -28.15945 | 29.30661 | 41064 ft | 585 kts | 157° |
| 2026-05-05 05:33 | -28.23078 | 29.35068 | 41059 ft | 585 kts | 157° |
| 2026-05-05 05:33 | -28.30260 | 29.39514 | 41028 ft | 585 kts | 157° |
| 2026-05-05 05:34 | -28.37395 | 29.43938 | 41016 ft | 585 kts | 157° |
| 2026-05-05 05:34 | -28.44513 | 29.48357 | 41022 ft | 585 kts | 157° |
| 2026-05-05 05:35 | -28.51595 | 29.52765 | 40788 ft | 577 kts | 157° |
| 2026-05-05 05:35 | -28.55113 | 29.54957 | 40077 ft | 577 kts | 157° |
| 2026-05-05 05:35 | -28.58653 | 29.57162 | 39423 ft | 576 kts | 157° |
| 2026-05-05 05:36 | -28.62139 | 29.59333 | 38749 ft | 576 kts | 157° |
| 2026-05-05 05:36 | -28.65668 | 29.61533 | 37930 ft | 577 kts | 157° |
| 2026-05-05 05:36 | -28.69213 | 29.63744 | 37161 ft | 577 kts | 157° |
| 2026-05-05 05:36 | -28.72697 | 29.65920 | 36419 ft | 576 kts | 157° |
| 2026-05-05 05:37 | -28.76244 | 29.68137 | 35761 ft | 574 kts | 157° |
| 2026-05-05 05:37 | -28.79702 | 29.70306 | 35265 ft | 568 kts | 157° |
| 2026-05-05 05:37 | -28.83172 | 29.72484 | 34759 ft | 563 kts | 156° |
| 2026-05-05 05:37 | -28.86569 | 29.74616 | 34263 ft | 559 kts | 156° |
| 2026-05-05 05:38 | -28.89933 | 29.76727 | 33705 ft | 555 kts | 156° |
| 2026-05-05 05:38 | -28.93312 | 29.78847 | 33166 ft | 550 kts | 156° |
| 2026-05-05 05:38 | -28.96661 | 29.80950 | 32632 ft | 545 kts | 156° |
| 2026-05-05 05:38 | -28.99984 | 29.83039 | 32123 ft | 540 kts | 155° |
| 2026-05-05 05:39 | -29.03265 | 29.85102 | 31599 ft | 536 kts | 155° |
| 2026-05-05 05:39 | -29.06479 | 29.87125 | 31097 ft | 531 kts | 155° |
| 2026-05-05 05:39 | -29.09702 | 29.89155 | 30572 ft | 527 kts | 154° |
| 2026-05-05 05:39 | -29.12908 | 29.91175 | 30031 ft | 523 kts | 154° |
| 2026-05-05 05:40 | -29.16081 | 29.93176 | 29382 ft | 518 kts | 153° |
| 2026-05-05 05:40 | -29.19222 | 29.95161 | 28774 ft | 512 kts | 153° |
| 2026-05-05 05:40 | -29.22318 | 29.97119 | 28191 ft | 506 kts | 153° |
| 2026-05-05 05:40 | -29.25388 | 29.99062 | 27616 ft | 500 kts | 153° |
| 2026-05-05 05:41 | -29.28412 | 30.00975 | 27052 ft | 494 kts | 153° |
| 2026-05-05 05:41 | -29.31401 | 30.02868 | 26497 ft | 489 kts | 154° |
| 2026-05-05 05:41 | -29.34330 | 30.04723 | 25950 ft | 484 kts | 154° |
| 2026-05-05 05:41 | -29.37264 | 30.06584 | 25417 ft | 479 kts | 154° |
| 2026-05-05 05:42 | -29.40178 | 30.08432 | 24873 ft | 475 kts | 154° |
| 2026-05-05 05:42 | -29.43062 | 30.10262 | 24322 ft | 471 kts | 154° |
| 2026-05-05 05:42 | -29.45915 | 30.12074 | 23773 ft | 468 kts | 154° |
| 2026-05-05 05:42 | -29.48600 | 30.14112 | 23165 ft | 463 kts | 139° |
| 2026-05-05 05:43 | -29.50028 | 30.15918 | 22789 ft | 460 kts | 126° |
| 2026-05-05 05:43 | -29.51977 | 30.20225 | 22053 ft | 451 kts | 104° |
| 2026-05-05 05:43 | -29.52427 | 30.22523 | 21709 ft | 439 kts | 96° |
| 2026-05-05 05:43 | -29.52860 | 30.25974 | 21208 ft | 434 kts | 95° |
| 2026-05-05 05:44 | -29.53271 | 30.29401 | 20704 ft | 430 kts | 95° |
| 2026-05-05 05:44 | -29.53827 | 30.33894 | 20045 ft | 426 kts | 95° |
| 2026-05-05 05:44 | -29.54119 | 30.36169 | 19714 ft | 424 kts | 95° |
| 2026-05-05 05:44 | -29.54561 | 30.39511 | 19208 ft | 422 kts | 96° |
| 2026-05-05 05:45 | -29.55000 | 30.42783 | 18730 ft | 418 kts | 96° |
| 2026-05-05 05:45 | -29.55444 | 30.46078 | 18233 ft | 416 kts | 96° |
| 2026-05-05 05:45 | -29.55886 | 30.49357 | 17675 ft | 414 kts | 96° |
| 2026-05-05 05:45 | -29.56322 | 30.52610 | 17142 ft | 410 kts | 96° |
| 2026-05-05 05:46 | -29.56755 | 30.55838 | 16650 ft | 407 kts | 96° |
| 2026-05-05 05:46 | -29.57182 | 30.59034 | 16136 ft | 403 kts | 96° |
| 2026-05-05 05:46 | -29.57607 | 30.62215 | 15647 ft | 400 kts | 96° |
| 2026-05-05 05:46 | -29.58022 | 30.65348 | 15162 ft | 396 kts | 96° |
| 2026-05-05 05:47 | -29.58436 | 30.68465 | 14667 ft | 393 kts | 96° |
| 2026-05-05 05:47 | -29.58847 | 30.71563 | 14191 ft | 391 kts | 97° |
| 2026-05-05 05:47 | -29.59255 | 30.74648 | 13701 ft | 389 kts | 97° |
| 2026-05-05 05:47 | -29.59660 | 30.77713 | 13151 ft | 387 kts | 96° |
| 2026-05-05 05:48 | -29.60055 | 30.80717 | 12632 ft | 384 kts | 97° |
| 2026-05-05 05:48 | -29.60454 | 30.83743 | 12127 ft | 381 kts | 97° |
| 2026-05-05 05:48 | -29.60840 | 30.86654 | 11599 ft | 354 kts | 97° |
| 2026-05-05 05:48 | -29.61205 | 30.89443 | 11183 ft | 351 kts | 96° |
| 2026-05-05 05:49 | -29.61522 | 30.92196 | 10717 ft | 341 kts | 90° |
| 2026-05-05 05:49 | -29.61144 | 30.94842 | 10367 ft | 329 kts | 64° |
| 2026-05-05 05:49 | -29.60032 | 30.97042 | 10266 ft | 312 kts | 48° |
| 2026-05-05 05:49 | -29.58523 | 30.98739 | 10126 ft | 297 kts | 35° |
| 2026-05-05 05:50 | -29.56912 | 31.00154 | 9990 ft | 286 kts | 33° |
| 2026-05-05 05:50 | -29.55349 | 31.01484 | 9795 ft | 281 kts | 33° |
| 2026-05-05 05:50 | -29.53759 | 31.02833 | 9436 ft | 280 kts | 33° |
| 2026-05-05 05:50 | -29.52224 | 31.04145 | 9113 ft | 278 kts | 33° |
| 2026-05-05 05:51 | -29.50678 | 31.05472 | 8770 ft | 277 kts | 33° |
| 2026-05-05 05:51 | -29.49141 | 31.06799 | 8473 ft | 274 kts | 33° |
| 2026-05-05 05:51 | -29.47626 | 31.08112 | 8194 ft | 272 kts | 33° |
| 2026-05-05 05:51 | -29.46120 | 31.09417 | 7870 ft | 271 kts | 33° |
| 2026-05-05 05:52 | -29.44620 | 31.10721 | 7555 ft | 270 kts | 33° |
| 2026-05-05 05:52 | -29.43124 | 31.12020 | 7244 ft | 270 kts | 33° |
| 2026-05-05 05:52 | -29.41631 | 31.13316 | 6925 ft | 269 kts | 32° |
| 2026-05-05 05:52 | -29.40139 | 31.14613 | 6610 ft | 269 kts | 32° |
| 2026-05-05 05:53 | -29.38640 | 31.15917 | 6286 ft | 271 kts | 32° |
| 2026-05-05 05:53 | -29.37129 | 31.17224 | 5944 ft | 273 kts | 33° |
| 2026-05-05 05:53 | -29.35616 | 31.18534 | 5629 ft | 273 kts | 33° |
| 2026-05-05 05:53 | -29.34294 | 31.20046 | 5382 ft | 272 kts | 56° |
| 2026-05-05 05:54 | -29.33692 | 31.22109 | 5164 ft | 277 kts | 84° |
| 2026-05-05 05:54 | -29.33924 | 31.24292 | 4966 ft | 279 kts | 110° |
| 2026-05-05 05:54 | -29.34940 | 31.26158 | 4739 ft | 277 kts | 137° |
| 2026-05-05 05:54 | -29.36490 | 31.27357 | 4555 ft | 268 kts | 161° |
| 2026-05-05 05:55 | -29.38247 | 31.27910 | 4321 ft | 248 kts | 168° |
| 2026-05-05 05:55 | -29.39858 | 31.28347 | 4114 ft | 228 kts | 168° |
| 2026-05-05 05:55 | -29.41312 | 31.28497 | 3920 ft | 202 kts | 195° |
| 2026-05-05 05:55 | -29.42501 | 31.27858 | 3850 ft | 181 kts | 211° |
| 2026-05-05 05:56 | -29.43581 | 31.27120 | 3691 ft | 178 kts | 213° |
| 2026-05-05 05:56 | -29.44594 | 31.26332 | 3546 ft | 175 kts | 215° |
| 2026-05-05 05:56 | -29.45583 | 31.25505 | 3434 ft | 177 kts | 216° |
| 2026-05-05 05:56 | -29.46569 | 31.24659 | 3293 ft | 177 kts | 216° |
| 2026-05-05 05:57 | -29.47545 | 31.23811 | 3142 ft | 175 kts | 216° |
| 2026-05-05 05:57 | -29.48516 | 31.22966 | 2990 ft | 173 kts | 216° |
| 2026-05-05 05:57 | -29.49431 | 31.22167 | 2802 ft | 156 kts | 215° |
| 2026-05-05 05:57 | -29.50263 | 31.21446 | 2619 ft | 142 kts | 215° |
| 2026-05-05 05:58 | -29.50999 | 31.20799 | 2430 ft | 129 kts | 215° |
| 2026-05-05 05:58 | -29.51720 | 31.20173 | 2299 ft | 128 kts | 214° |
| 2026-05-05 05:58 | -29.52429 | 31.19556 | 2121 ft | 127 kts | 215° |
| 2026-05-05 05:58 | -29.53127 | 31.18946 | 1938 ft | 126 kts | 215° |
| 2026-05-05 05:59 | -29.53825 | 31.18338 | 1789 ft | 130 kts | 216° |
| 2026-05-05 05:59 | -29.54533 | 31.17721 | 1615 ft | 125 kts | 216° |
| 2026-05-05 05:59 | -29.55219 | 31.17123 | 1452 ft | 123 kts | 217° |
| 2026-05-05 05:59 | -29.55897 | 31.16532 | 1310 ft | 121 kts | 217° |
| 2026-05-05 06:00 | -29.56571 | 31.15943 | 1172 ft | 123 kts | 217° |
| 2026-05-05 06:00 | -29.57258 | 31.15345 | 992 ft | 124 kts | 217° |
| 2026-05-05 06:00 | -29.57933 | 31.14754 | 836 ft | 120 kts | 216° |
| 2026-05-05 06:00 | -29.58588 | 31.14181 | 667 ft | 116 kts | 216° |
| 2026-05-05 06:01 | -29.59237 | 31.13629 | 538 ft | 118 kts | 217° |
| 2026-05-05 06:01 | -29.59893 | 31.13040 | 395 ft | 123 kts | 216° |
| 2026-05-05 06:01 | -29.60587 | 31.12442 | 319 ft | 122 kts | 216° |
| 2026-05-05 06:01 | -29.61184 | 31.11925 | 307 ft | 89 kts | 217° |
| 2026-05-05 06:02 | -29.61553 | 31.11603 | 306 ft | 46 kts | 218° |
| 2026-05-05 06:02 | -29.61792 | 31.11397 | 305 ft | 40 kts | 217° |
| 2026-05-05 06:02 | -29.62000 | 31.11214 | 303 ft | 35 kts | 217° |
| 2026-05-05 06:02 | -29.62180 | 31.11062 | 307 ft | 30 kts | 216° |
| 2026-05-05 06:03 | -29.62346 | 31.10916 | 306 ft | 31 kts | 218° |
| 2026-05-05 06:03 | -29.62469 | 31.10762 | 303 ft | 17 kts | 274° |
| 2026-05-05 06:03 | -29.62402 | 31.10648 | 304 ft | 17 kts | 307° |
| 2026-05-05 06:03 | -29.62329 | 31.10536 | 304 ft | 17 kts | 306° |
| 2026-05-05 06:04 | -29.62249 | 31.10437 | 302 ft | 17 kts | 347° |
| 2026-05-05 06:04 | -29.62145 | 31.10505 | 305 ft | 17 kts | 38° |
| 2026-05-05 06:04 | -29.62049 | 31.10591 | 303 ft | 17 kts | 36° |
| 2026-05-05 06:04 | -29.61966 | 31.10663 | 305 ft | 13 kts | 38° |
| 2026-05-05 06:05 | -29.61918 | 31.10705 | 305 ft | 6 kts | 32° |
| 2026-05-05 06:05 | -29.61894 | 31.10693 | 305 ft | 4 kts | 301° |
| 2026-05-05 06:05 | -29.61885 | 31.10676 | 304 ft | 0 kts | 304° |
| 2026-05-05 06:05 | -29.61883 | 31.10672 | 303 ft | 2 kts | 306° |
| 2026-05-05 06:06 | -29.61877 | 31.10664 | 304 ft | 1 kts | 307° |
| 2026-05-05 06:06 | -29.61877 | 31.10663 | 304 ft | 0 kts | 307° |
| 2026-05-05 06:08 | -29.61871 | 31.10655 | 304 ft | 0 kts | 307° |
| 2026-05-05 06:08 | -29.61876 | 31.10664 | 304 ft | 0 kts | 307° |
| 2026-05-05 06:23 | -29.61722 | 31.10640 | 304 ft | 0 kts | 128° |
| 2026-05-05 06:23 | -29.61721 | 31.10640 | 304 ft | 0 kts | 128° |
| 2026-05-05 06:23 | -29.61723 | 31.10645 | 305 ft | 0 kts | 128° |
| 2026-05-05 06:24 | -29.61662 | 31.10699 | 302 ft | 0 kts | 128° |
| 2026-05-05 06:24 | -29.61661 | 31.10699 | 302 ft | 0 kts | 128° |